createdAt,value
2019-03-21T00:01:25.385Z,46.29
2019-03-21T00:03:55.499Z,46.67
2019-03-21T00:06:22.109Z,45.62
2019-03-21T00:08:49.114Z,46.28
2019-03-21T00:11:53.157Z,46.39
2019-03-21T00:14:23.413Z,46.27
2019-03-21T00:16:50.060Z,46.84
2019-03-21T00:19:16.797Z,47.27
2019-03-21T00:21:43.504Z,48.46
2019-03-21T00:24:10.203Z,48.29
2019-03-21T00:26:36.917Z,48.28
2019-03-21T00:29:03.676Z,48.85
2019-03-21T00:31:30.467Z,48.82
2019-03-21T00:33:57.206Z,49.63
2019-03-21T00:36:23.950Z,49.96
2019-03-21T00:38:50.630Z,49.97
2019-03-21T00:41:17.438Z,50.72
2019-03-21T00:43:44.101Z,50.54
2019-03-21T00:46:10.770Z,50.45
2019-03-21T00:48:37.499Z,51.33
2019-03-21T00:51:04.143Z,50.87
2019-03-21T00:53:30.810Z,51.51
2019-03-21T00:55:58.287Z,51.51
2019-03-21T00:58:24.959Z,51.62
2019-03-21T01:00:57.920Z,51.55
2019-03-21T01:03:24.728Z,51.80
2019-03-21T01:05:51.430Z,52.42
2019-03-21T01:08:18.143Z,52.62
2019-03-21T01:10:44.863Z,52.53
2019-03-21T01:13:11.486Z,52.58
2019-03-21T01:15:38.158Z,52.77
2019-03-21T01:18:04.858Z,52.60
2019-03-21T01:20:31.585Z,52.85
2019-03-21T01:22:58.291Z,53.49
2019-03-21T01:25:43.416Z,54.19
2019-03-21T01:28:10.047Z,54.33
2019-03-21T01:30:36.678Z,54.59
2019-03-21T01:33:04.379Z,54.90
2019-03-21T01:35:31.007Z,54.67
2019-03-21T01:37:57.694Z,54.72
2019-03-21T01:40:40.206Z,54.87
2019-03-21T01:43:06.908Z,54.53
2019-03-21T01:45:34.618Z,54.63
2019-03-21T01:48:01.359Z,54.29
2019-03-21T01:50:38.612Z,54.72
2019-03-21T01:53:05.312Z,54.71
2019-03-21T01:55:31.958Z,54.82
2019-03-21T01:57:58.648Z,55.08
2019-03-21T02:00:46.744Z,55.68
2019-03-21T02:03:13.390Z,55.86
2019-03-21T02:05:40.118Z,56.16
2019-03-21T02:08:06.827Z,56.57
2019-03-21T02:10:34.062Z,56.71
2019-03-21T02:13:00.726Z,56.20
2019-03-21T02:15:27.462Z,56.36
2019-03-21T02:17:54.093Z,56.10
2019-03-21T02:20:21.698Z,56.39
2019-03-21T02:22:48.421Z,57.06
2019-03-21T02:25:32.569Z,57.26
2019-03-21T02:27:59.233Z,56.93
2019-03-21T02:30:32.191Z,56.83
2019-03-21T02:33:11.668Z,57.52
2019-03-21T02:35:38.458Z,57.55
2019-03-21T02:38:05.237Z,57.05
2019-03-21T02:40:31.842Z,57.31
2019-03-21T02:42:58.543Z,57.39
2019-03-21T02:45:25.334Z,57.32
2019-03-21T02:47:52.071Z,57.89
2019-03-21T02:50:30.565Z,57.76
2019-03-21T02:52:57.315Z,57.47
2019-03-21T02:55:24.109Z,58.41
2019-03-21T02:57:50.783Z,58.44
2019-03-21T03:00:23.498Z,58.62
2019-03-21T03:02:52.003Z,58.35
2019-03-21T03:05:21.337Z,58.57
2019-03-21T03:07:48.070Z,58.93
2019-03-21T03:10:18.281Z,58.73
2019-03-21T03:12:44.944Z,58.33
2019-03-21T03:15:22.470Z,58.67
2019-03-21T03:17:43.435Z,58.84
2019-03-21T03:20:13.448Z,59.14
2019-03-21T03:22:40.158Z,59.07
2019-03-21T03:25:09.795Z,59.69
2019-03-21T03:27:37.436Z,60.10
2019-03-21T03:30:07.819Z,60.04
2019-03-21T03:32:34.523Z,60.03
2019-03-21T03:35:01.368Z,59.80
2019-03-21T03:37:29.051Z,59.95
2019-03-21T03:39:55.736Z,60.80
2019-03-21T03:42:22.538Z,60.62
2019-03-21T03:44:49.243Z,61.14
2019-03-21T03:47:15.934Z,61.76
2019-03-21T03:49:42.709Z,62.85
2019-03-21T03:52:09.495Z,62.32
2019-03-21T03:54:36.096Z,61.53
2019-03-21T03:57:02.784Z,61.68
2019-03-21T03:59:29.466Z,61.14
2019-03-21T04:01:56.203Z,61.37
2019-03-21T04:04:22.990Z,60.87
2019-03-21T04:06:50.710Z,61.04
2019-03-21T04:09:17.344Z,61.59
2019-03-21T04:11:44.012Z,61.63
2019-03-21T04:14:10.728Z,62.03
2019-03-21T04:16:37.467Z,62.57
2019-03-21T04:19:04.094Z,62.41
2019-03-21T04:21:30.784Z,61.18
2019-03-21T04:23:59.762Z,61.35
2019-03-21T04:26:29.538Z,61.52
2019-03-21T04:28:56.223Z,61.31
2019-03-21T04:31:22.859Z,61.19
2019-03-21T04:33:52.490Z,62.01
2019-03-21T04:36:19.594Z,63.03
2019-03-21T04:38:46.300Z,62.31
2019-03-21T04:41:13.063Z,62.91
2019-03-21T04:43:39.759Z,63.24
2019-03-21T04:46:06.532Z,62.75
2019-03-21T04:48:33.238Z,62.25
2019-03-21T04:50:59.966Z,61.74
2019-03-21T04:53:26.589Z,62.35
2019-03-21T04:55:53.315Z,62.54
2019-03-21T04:58:20.162Z,63.35
2019-03-21T05:00:50.437Z,62.51
2019-03-21T05:03:22.110Z,63.50
2019-03-21T05:05:49.919Z,63.30
2019-03-21T05:08:17.528Z,63.97
2019-03-21T05:10:44.200Z,62.87
2019-03-21T05:13:10.870Z,62.70
2019-03-21T05:15:43.987Z,63.11
2019-03-21T05:18:14.332Z,62.83
2019-03-21T05:20:41.012Z,64.07
2019-03-21T05:23:07.782Z,64.09
2019-03-21T05:25:34.562Z,63.95
2019-03-21T05:28:01.317Z,63.92
2019-03-21T05:30:37.463Z,63.58
2019-03-21T05:33:04.150Z,63.97
2019-03-21T05:35:30.847Z,64.99
2019-03-21T05:37:57.589Z,64.71
2019-03-21T05:40:25.333Z,64.41
2019-03-21T05:43:01.898Z,64.47
2019-03-21T05:45:28.554Z,65.55
2019-03-21T05:47:55.193Z,65.18
2019-03-21T05:50:21.958Z,64.84
2019-03-21T05:52:48.582Z,64.53
2019-03-21T05:55:15.212Z,65.03
2019-03-21T05:57:42.990Z,64.69
2019-03-21T06:00:27.998Z,64.92
2019-03-21T06:02:54.661Z,64.39
2019-03-21T06:05:21.384Z,64.55
2019-03-21T06:07:51.598Z,64.40
2019-03-21T06:10:18.525Z,64.92
2019-03-21T06:12:45.548Z,65.53
2019-03-21T06:15:18.604Z,65.60
2019-03-21T06:17:48.875Z,64.38
2019-03-21T06:20:28.128Z,63.56
2019-03-21T06:22:58.551Z,63.29
2019-03-21T06:25:31.664Z,62.88
2019-03-21T06:27:58.374Z,62.10
2019-03-21T06:30:24.979Z,61.42
2019-03-21T06:32:51.688Z,60.63
2019-03-21T06:35:19.588Z,59.57
2019-03-21T06:37:46.317Z,58.53
2019-03-21T06:40:13.042Z,56.30
2019-03-21T06:42:39.837Z,55.49
2019-03-21T06:45:06.431Z,55.97
2019-03-21T06:47:33.133Z,53.72
2019-03-21T06:49:59.831Z,54.23
2019-03-21T06:52:26.562Z,52.86
2019-03-21T06:54:53.383Z,52.20
2019-03-21T06:57:20.136Z,51.34
2019-03-21T06:59:46.800Z,50.56
2019-03-21T07:02:13.461Z,50.39
2019-03-21T07:04:40.187Z,48.69
2019-03-21T07:07:08.402Z,49.82
2019-03-21T07:09:35.411Z,49.80
2019-03-21T07:12:02.126Z,49.37
2019-03-21T07:14:28.763Z,47.95
2019-03-21T07:17:00.280Z,47.42
2019-03-21T07:19:24.063Z,48.26
2019-03-21T07:21:50.699Z,46.23
2019-03-21T07:24:17.365Z,47.20
2019-03-21T07:26:44.079Z,45.35
2019-03-21T07:29:10.793Z,43.98
2019-03-21T07:31:37.540Z,45.80
2019-03-21T07:34:04.292Z,44.19
2019-03-21T07:36:31.138Z,43.04
2019-03-21T07:38:57.794Z,43.67
2019-03-21T07:41:24.603Z,41.55
2019-03-21T07:43:52.461Z,40.96
2019-03-21T07:46:19.195Z,43.03
2019-03-21T07:48:46.044Z,42.79
2019-03-21T07:51:12.673Z,43.39
2019-03-21T07:53:39.411Z,39.71
2019-03-21T07:56:06.255Z,42.54
2019-03-21T07:58:33.129Z,38.75
2019-03-21T08:01:00.152Z,39.09
2019-03-21T08:03:26.992Z,36.57
2019-03-21T08:05:53.748Z,37.32
2019-03-21T08:08:20.470Z,35.82
2019-03-21T08:10:47.204Z,39.03
2019-03-21T08:13:13.842Z,35.65
2019-03-21T08:15:40.578Z,35.35
2019-03-21T08:18:07.325Z,34.73
2019-03-21T08:20:34.058Z,35.79
2019-03-21T08:23:00.899Z,37.44
2019-03-21T08:25:27.640Z,38.08
2019-03-21T08:27:54.284Z,38.44
2019-03-21T08:30:33.811Z,36.97
2019-03-21T08:33:02.929Z,37.15
2019-03-21T08:35:28.999Z,39.12
2019-03-21T08:37:55.709Z,37.62
2019-03-21T08:40:22.437Z,38.32
2019-03-21T08:42:49.261Z,39.55
2019-03-21T08:45:16.093Z,38.12
2019-03-21T08:47:42.841Z,38.48
2019-03-21T08:50:10.801Z,37.27
2019-03-21T08:52:37.548Z,39.47
2019-03-21T08:55:05.748Z,35.82
2019-03-21T08:57:32.560Z,40.73
2019-03-21T08:59:59.307Z,36.21
2019-03-21T09:02:26.041Z,37.78
2019-03-21T09:04:52.774Z,37.46
2019-03-21T09:07:19.513Z,36.73
2019-03-21T09:09:46.158Z,35.59
2019-03-21T09:12:12.890Z,35.49
2019-03-21T09:14:39.636Z,34.60
2019-03-21T09:17:06.476Z,33.21
2019-03-21T09:19:33.217Z,32.67
2019-03-21T09:22:00.061Z,32.62
2019-03-21T09:24:26.792Z,32.33
2019-03-21T09:26:53.529Z,34.19
2019-03-21T09:29:20.281Z,31.77
2019-03-21T09:31:47.112Z,31.75
2019-03-21T09:34:13.850Z,32.50
2019-03-21T09:36:40.593Z,33.86
2019-03-21T09:39:07.302Z,36.64
2019-03-21T09:41:34.051Z,31.40
2019-03-21T09:44:00.867Z,34.00
2019-03-21T09:46:27.569Z,31.54
2019-03-21T09:48:54.203Z,32.08
2019-03-21T09:51:30.578Z,31.82
2019-03-21T09:53:49.389Z,27.92
2019-03-21T09:56:16.103Z,28.66
2019-03-21T09:58:42.835Z,29.19
2019-03-21T10:01:09.560Z,30.93
2019-03-21T10:03:36.196Z,29.28
2019-03-21T10:06:03.151Z,29.77
2019-03-21T10:08:29.817Z,26.19
2019-03-21T10:10:56.480Z,27.89
2019-03-21T10:13:23.163Z,26.34
2019-03-21T10:15:49.818Z,28.04
2019-03-21T10:18:16.476Z,28.19
2019-03-21T10:20:43.185Z,28.72
2019-03-21T10:23:10.900Z,29.84
2019-03-21T10:25:37.631Z,32.29
2019-03-21T10:28:04.582Z,30.64
2019-03-21T10:30:41.453Z,28.52
2019-03-21T10:33:12.185Z,29.19
2019-03-21T10:35:39.044Z,32.54
2019-03-21T10:38:06.586Z,30.35
2019-03-21T10:40:33.435Z,29.24
2019-03-21T10:43:00.278Z,27.39
2019-03-21T10:45:27.008Z,28.34
2019-03-21T10:47:53.754Z,25.53
2019-03-21T10:50:32.170Z,26.02
2019-03-21T10:52:59.004Z,27.87
2019-03-21T10:55:25.852Z,24.83
2019-03-21T10:57:52.687Z,27.67
2019-03-21T11:00:19.329Z,27.69
2019-03-21T11:02:46.062Z,28.62
2019-03-21T11:05:12.812Z,26.72
2019-03-21T11:07:40.463Z,26.34
2019-03-21T11:10:07.517Z,25.76
2019-03-21T11:12:34.360Z,27.56
2019-03-21T11:15:01.101Z,25.37
2019-03-21T11:17:27.840Z,23.46
2019-03-21T11:19:54.681Z,27.69
2019-03-21T11:22:21.320Z,25.64
2019-03-21T11:24:48.001Z,27.03
2019-03-21T11:27:15.827Z,23.86
2019-03-21T11:29:42.478Z,26.38
2019-03-21T11:32:09.117Z,26.97
2019-03-21T11:34:35.936Z,23.85
2019-03-21T11:37:02.680Z,24.28
2019-03-21T11:39:29.410Z,27.33
2019-03-21T11:41:56.264Z,25.78
2019-03-21T11:44:22.895Z,23.30
2019-03-21T11:46:49.636Z,24.26
2019-03-21T11:49:16.561Z,25.08
2019-03-21T11:51:43.420Z,26.38
2019-03-21T11:54:10.150Z,25.04
2019-03-21T11:56:36.900Z,25.57
2019-03-21T11:59:03.733Z,27.54
2019-03-21T12:01:30.472Z,26.21
2019-03-21T12:03:57.212Z,26.79
2019-03-21T12:06:23.848Z,25.40
2019-03-21T12:08:50.702Z,26.68
2019-03-21T12:11:17.532Z,25.16
2019-03-21T12:13:44.484Z,25.36
2019-03-21T12:16:11.322Z,27.67
2019-03-21T12:18:38.060Z,26.85
2019-03-21T12:21:04.712Z,26.68
2019-03-21T12:23:31.436Z,24.93
2019-03-21T12:25:58.183Z,24.03
2019-03-21T12:28:24.921Z,26.34
2019-03-21T12:30:51.661Z,25.50
2019-03-21T12:33:18.391Z,26.73
2019-03-21T12:35:45.042Z,25.43
2019-03-21T12:38:11.768Z,22.80
2019-03-21T12:40:38.506Z,23.59
2019-03-21T12:43:05.349Z,24.74
2019-03-21T12:45:32.094Z,25.89
2019-03-21T12:47:58.773Z,26.26
2019-03-21T12:50:25.575Z,26.64
2019-03-21T12:52:52.315Z,38.00
2019-03-21T12:55:19.046Z,25.56
2019-03-21T12:57:45.683Z,26.42
2019-03-21T13:00:13.446Z,24.35
2019-03-21T13:02:42.955Z,26.73
2019-03-21T13:05:24.549Z,23.56
2019-03-21T13:07:51.253Z,23.81
2019-03-21T13:10:18.023Z,24.78
2019-03-21T13:12:44.765Z,24.94
2019-03-21T13:15:11.497Z,26.04
2019-03-21T13:17:38.346Z,25.78
2019-03-21T13:20:06.121Z,25.25
2019-03-21T13:22:33.871Z,24.76
2019-03-21T13:25:00.605Z,27.08
2019-03-21T13:27:27.359Z,26.74
2019-03-21T13:29:54.079Z,25.20
2019-03-21T13:32:20.782Z,25.20
2019-03-21T13:34:47.459Z,26.65
2019-03-21T13:37:14.096Z,25.55
2019-03-21T13:39:40.838Z,28.05
2019-03-21T13:42:07.482Z,25.30
2019-03-21T13:44:34.120Z,27.44
2019-03-21T13:47:00.860Z,25.27
2019-03-21T13:49:27.591Z,25.15
2019-03-21T13:51:54.337Z,25.32
2019-03-21T13:54:21.172Z,26.47
2019-03-21T13:56:47.807Z,27.20
2019-03-21T13:59:14.554Z,26.28
2019-03-21T14:01:41.242Z,26.20
2019-03-21T14:04:07.959Z,25.35
2019-03-21T14:06:34.671Z,27.35
2019-03-21T14:09:01.552Z,27.39
2019-03-21T14:11:30.088Z,26.51
2019-03-21T14:13:56.792Z,27.17
2019-03-21T14:16:23.572Z,25.95
2019-03-21T14:18:50.313Z,27.12
2019-03-21T14:21:17.153Z,27.12
2019-03-21T14:23:43.950Z,25.00
2019-03-21T14:26:10.738Z,26.26
2019-03-21T14:28:37.472Z,26.94
2019-03-21T14:31:04.180Z,25.28
2019-03-21T14:33:30.844Z,25.81
2019-03-21T14:35:57.593Z,25.77
2019-03-21T14:38:26.329Z,26.70
2019-03-21T14:40:53.014Z,26.83
2019-03-21T14:43:19.746Z,26.98
2019-03-21T14:45:46.487Z,27.43
2019-03-21T14:48:13.131Z,28.18
2019-03-21T14:50:39.963Z,27.42
2019-03-21T14:53:06.925Z,28.40
2019-03-21T14:55:33.545Z,25.84
2019-03-21T14:58:00.284Z,26.65
2019-03-21T15:00:27.130Z,26.69
2019-03-21T15:02:53.964Z,27.22
2019-03-21T15:05:20.615Z,27.13
2019-03-21T15:07:47.347Z,26.69
2019-03-21T15:10:15.439Z,27.63
2019-03-21T15:12:42.268Z,27.98
2019-03-21T15:15:11.306Z,28.15
2019-03-21T15:17:38.101Z,27.23
2019-03-21T15:20:15.189Z,27.50
2019-03-21T15:22:42.223Z,26.65
2019-03-21T15:25:10.599Z,26.61
2019-03-21T15:27:37.246Z,27.38
2019-03-21T15:30:06.772Z,27.79
2019-03-21T15:32:33.581Z,28.36
2019-03-21T15:35:00.455Z,29.21
2019-03-21T15:37:27.272Z,29.02
2019-03-21T15:39:54.004Z,28.10
2019-03-21T15:42:20.655Z,28.88
2019-03-21T15:44:47.389Z,28.78
2019-03-21T15:47:14.092Z,28.93
2019-03-21T15:49:40.754Z,28.81
2019-03-21T15:52:07.411Z,29.39
2019-03-21T15:54:34.284Z,29.50
2019-03-21T15:57:01.064Z,28.65
2019-03-21T15:59:27.768Z,29.24
2019-03-21T16:01:54.564Z,29.51
2019-03-21T16:04:21.304Z,30.48
2019-03-21T16:06:47.990Z,31.03
2019-03-21T16:09:14.782Z,32.08
2019-03-21T16:11:41.580Z,30.96
2019-03-21T16:14:08.466Z,30.51
2019-03-21T16:16:35.313Z,30.46
2019-03-21T16:19:02.047Z,30.73
2019-03-21T16:21:28.676Z,32.04
2019-03-21T16:24:04.603Z,31.91
2019-03-21T16:26:24.111Z,32.70
2019-03-21T16:28:50.882Z,32.64
2019-03-21T16:31:17.683Z,32.69
2019-03-21T16:33:45.449Z,33.35
2019-03-21T16:36:12.086Z,32.88
2019-03-21T16:38:38.823Z,33.34
2019-03-21T16:41:05.573Z,33.25
2019-03-21T16:43:32.302Z,33.44
2019-03-21T16:45:59.042Z,33.75
2019-03-21T16:48:25.887Z,33.73
2019-03-21T16:50:52.527Z,33.85
2019-03-21T16:53:19.472Z,34.16
2019-03-21T16:55:46.314Z,34.63
2019-03-21T16:58:13.046Z,34.51
2019-03-21T17:00:39.790Z,35.06
2019-03-21T17:03:06.533Z,35.54
2019-03-21T17:05:33.264Z,35.27
2019-03-21T17:08:10.625Z,34.88
2019-03-21T17:10:30.574Z,34.96
2019-03-21T17:12:57.196Z,35.28
2019-03-21T17:15:24.043Z,34.97
2019-03-21T17:17:50.767Z,35.36
2019-03-21T17:20:17.415Z,35.13
2019-03-21T17:22:44.137Z,34.93
2019-03-21T17:25:11.293Z,35.15
2019-03-21T17:27:38.249Z,35.33
2019-03-21T17:30:08.545Z,36.27
2019-03-21T17:32:35.329Z,36.64
2019-03-21T17:35:02.335Z,36.33
2019-03-21T17:37:29.076Z,36.49
2019-03-21T17:39:55.811Z,36.26
2019-03-21T17:42:22.454Z,36.25
2019-03-21T17:44:49.296Z,35.89
2019-03-21T17:47:16.034Z,36.29
2019-03-21T17:49:42.875Z,36.05
2019-03-21T17:52:09.811Z,36.18
2019-03-21T17:54:41.313Z,36.22
2019-03-21T17:57:05.249Z,36.49
2019-03-21T17:59:31.976Z,36.83
2019-03-21T18:01:59.235Z,36.98
2019-03-21T18:04:26.377Z,36.95
2019-03-21T18:06:53.026Z,37.57
2019-03-21T18:09:19.690Z,36.99
2019-03-21T18:11:46.487Z,37.54
2019-03-21T18:14:13.231Z,37.86
2019-03-21T18:16:40.080Z,37.18
2019-03-21T18:19:06.812Z,37.77
2019-03-21T18:21:33.596Z,38.08
2019-03-21T18:24:00.238Z,38.31
2019-03-21T18:26:27.102Z,38.73
2019-03-21T18:28:53.735Z,38.86
2019-03-21T18:31:20.415Z,39.10
2019-03-21T18:33:47.154Z,39.52
2019-03-21T18:36:13.954Z,40.01
2019-03-21T18:38:40.699Z,40.38
2019-03-21T18:41:07.939Z,40.61
2019-03-21T18:43:34.720Z,41.04
2019-03-21T18:46:01.673Z,41.00
2019-03-21T18:48:28.513Z,41.21
2019-03-21T18:50:55.345Z,42.13
2019-03-21T18:53:22.709Z,42.20
2019-03-21T18:55:49.447Z,42.46
2019-03-21T18:58:16.184Z,42.79
2019-03-21T19:00:42.926Z,42.88
2019-03-21T19:03:09.694Z,43.09
2019-03-21T19:05:36.503Z,43.53
2019-03-21T19:08:03.241Z,43.46
2019-03-21T19:10:30.006Z,43.68
2019-03-21T19:12:56.828Z,43.86
2019-03-21T19:15:23.670Z,43.51
2019-03-21T19:17:50.438Z,43.82
2019-03-21T19:20:17.972Z,44.00
2019-03-21T19:22:45.007Z,44.85
2019-03-21T19:25:18.423Z,45.14
2019-03-21T19:27:41.016Z,45.01
2019-03-21T19:30:11.063Z,45.48
2019-03-21T19:32:37.805Z,45.39
2019-03-21T19:35:04.803Z,45.57
2019-03-21T19:37:31.594Z,45.87
2019-03-21T19:39:58.337Z,46.38
2019-03-21T19:42:25.028Z,46.51
2019-03-21T19:44:51.672Z,46.89
2019-03-21T19:47:24.290Z,46.93
2019-03-21T19:49:47.025Z,47.33
2019-03-21T19:52:14.796Z,47.52
2019-03-21T19:54:41.528Z,47.46
2019-03-21T19:57:08.237Z,47.35
2019-03-21T19:59:46.975Z,47.09
2019-03-21T20:02:13.648Z,47.82
2019-03-21T20:04:40.364Z,48.31
2019-03-21T20:07:07.111Z,48.08
2019-03-21T20:09:33.767Z,48.47
2019-03-21T20:12:00.793Z,48.49
2019-03-21T20:14:27.398Z,48.76
2019-03-21T20:16:54.110Z,48.76
2019-03-21T20:19:20.783Z,49.44
2019-03-21T20:21:48.361Z,49.16
2019-03-21T20:24:15.182Z,49.77
2019-03-21T20:26:41.856Z,49.92
2019-03-21T20:29:08.755Z,50.50
2019-03-21T20:31:35.422Z,50.83
2019-03-21T20:34:02.067Z,50.75
2019-03-21T20:36:28.851Z,50.66
2019-03-21T20:38:55.626Z,50.54
2019-03-21T20:41:22.261Z,51.11
2019-03-21T20:43:49.889Z,51.05
2019-03-21T20:46:16.540Z,51.48
2019-03-21T20:48:42.790Z,51.99
2019-03-21T20:51:09.510Z,51.93
2019-03-21T20:53:37.121Z,51.77
2019-03-21T20:56:03.840Z,52.28
2019-03-21T20:58:30.602Z,52.58
2019-03-21T21:00:57.478Z,52.38
2019-03-21T21:03:24.270Z,52.55
2019-03-21T21:05:51.071Z,52.80
2019-03-21T21:08:17.802Z,53.28
2019-03-21T21:10:44.540Z,53.48
2019-03-21T21:13:11.375Z,53.55
2019-03-21T21:15:38.145Z,53.69
2019-03-21T21:18:04.782Z,53.56
2019-03-21T21:20:31.487Z,54.09
2019-03-21T21:22:58.172Z,54.04
2019-03-21T21:25:24.917Z,54.19
2019-03-21T21:27:51.660Z,54.94
2019-03-21T21:30:19.386Z,55.45
2019-03-21T21:32:46.211Z,56.72
2019-03-21T21:35:12.911Z,56.15
2019-03-21T21:37:39.582Z,55.97
2019-03-21T21:40:08.152Z,55.68
2019-03-21T21:42:34.966Z,56.54
2019-03-21T21:45:01.678Z,56.68
2019-03-21T21:47:29.359Z,56.43
2019-03-21T21:49:56.013Z,56.33
2019-03-21T21:52:22.727Z,56.62
2019-03-21T21:54:49.396Z,56.68
2019-03-21T21:57:17.065Z,57.23
2019-03-21T21:59:43.796Z,56.66
2019-03-21T22:02:10.643Z,56.84
2019-03-21T22:04:37.415Z,57.20
2019-03-21T22:07:04.196Z,57.71
2019-03-21T22:09:30.833Z,57.62
2019-03-21T22:11:57.536Z,57.35
2019-03-21T22:14:24.207Z,56.84
2019-03-21T22:16:50.904Z,56.86
2019-03-21T22:19:17.633Z,56.90
2019-03-21T22:21:44.330Z,56.77
2019-03-21T22:24:11.000Z,56.85
2019-03-21T22:26:37.675Z,57.41
2019-03-21T22:29:04.410Z,57.43
2019-03-21T22:31:31.053Z,57.50
2019-03-21T22:33:57.768Z,58.07
2019-03-21T22:36:24.477Z,57.53
2019-03-21T22:38:51.224Z,58.00
2019-03-21T22:41:18.999Z,57.90
2019-03-21T22:43:45.856Z,58.34
2019-03-21T22:46:12.459Z,58.81
2019-03-21T22:48:39.125Z,58.88
2019-03-21T22:51:05.886Z,58.50
2019-03-21T22:53:32.563Z,58.66
2019-03-21T22:55:59.208Z,58.51
2019-03-21T22:58:31.713Z,58.78
2019-03-21T23:00:54.857Z,58.62
2019-03-21T23:03:22.688Z,58.66
2019-03-21T23:05:49.431Z,58.78
2019-03-21T23:08:16.034Z,59.32
2019-03-21T23:10:45.027Z,59.27
2019-03-21T23:13:11.327Z,59.28
2019-03-21T23:15:38.070Z,59.06
2019-03-21T23:18:04.802Z,59.25
2019-03-21T23:20:31.552Z,59.46
2019-03-21T23:22:58.238Z,60.21
2019-03-21T23:25:24.906Z,60.23
2019-03-21T23:27:51.655Z,61.43
2019-03-21T23:30:18.271Z,61.54
2019-03-21T23:32:45.179Z,61.74
2019-03-21T23:35:11.899Z,61.73
2019-03-21T23:37:38.540Z,61.82
2019-03-21T23:40:07.529Z,62.01
2019-03-21T23:42:34.275Z,62.28
2019-03-21T23:45:00.914Z,62.78
2019-03-21T23:47:27.614Z,61.84
2019-03-21T23:49:54.337Z,60.76
2019-03-21T23:52:21.001Z,61.49
2019-03-21T23:54:47.711Z,61.19
2019-03-21T23:57:14.431Z,61.04
2019-03-21T23:59:41.175Z,60.83
